Time;durP1;ratioP1;P1;durP2;ratioP2;P2;SDS_P1;SDS_P2;PMS_P1;PMS_P2;Temp;Humidity;BMP_temperature;BMP_pressure;BME280_temperature;BME280_humidity;BME280_pressure;Samples;Min_cycle;Max_cycle;Signal;HPM_P1;HPM_P2
2023/08/21 00:01:46;;;;;;;10.77;4.90;;;;;;;;;;5009508;28;20021;-72
2023/08/21 00:04:11;;;;;;;6.97;4.60;;;;;;;;;;5013211;28;20056;-72
2023/08/21 00:06:37;;;;;;;8.55;5.00;;;;;;;;;;5013242;28;20416;-72
2023/08/21 00:09:02;;;;;;;11.13;5.17;;;;;;;;;;5013022;28;20013;-72
2023/08/21 00:11:27;;;;;;;9.82;5.05;;;;;;;;;;5012298;28;20268;-72
2023/08/21 00:13:52;;;;;;;14.50;5.10;;;;;;;;;;5011778;28;20482;-72
2023/08/21 00:16:18;;;;;;;13.43;5.00;;;;;;;;;;5006325;28;20025;-72
2023/08/21 00:18:43;;;;;;;9.43;4.88;;;;;;;;;;5007804;28;20335;-72
2023/08/21 00:21:08;;;;;;;9.13;4.60;;;;;;;;;;5010641;28;20026;-72
2023/08/21 00:23:33;;;;;;;8.47;4.27;;;;;;;;;;5012225;28;20287;-72
2023/08/21 00:25:58;;;;;;;13.07;5.60;;;;;;;;;;5013174;28;20382;-72
2023/08/21 00:28:24;;;;;;;13.20;5.40;;;;;;;;;;5013635;28;20061;-72
2023/08/21 00:30:49;;;;;;;13.32;5.20;;;;;;;;;;5009447;28;20014;-72
2023/08/21 00:33:14;;;;;;;19.40;5.40;;;;;;;;;;5012095;28;20113;-72
2023/08/21 00:35:40;;;;;;;7.90;4.70;;;;;;;;;;5012324;28;20762;-72
2023/08/21 00:38:05;;;;;;;8.70;5.37;;;;;;;;;;5013002;28;20076;-72
2023/08/21 00:40:30;;;;;;;9.57;5.07;;;;;;;;;;5013142;28;20053;-72
2023/08/21 00:42:56;;;;;;;8.73;5.32;;;;;;;;;;5009192;28;20425;-72
2023/08/21 00:45:21;;;;;;;14.48;5.40;;;;;;;;;;5011937;28;20402;-72
2023/08/21 00:47:46;;;;;;;11.10;5.77;;;;;;;;;;5012820;28;20029;-72
2023/08/21 00:50:11;;;;;;;12.67;4.93;;;;;;;;;;5010551;28;20291;-72
2023/08/21 00:52:39;;;;;;;16.60;4.90;;;;;;;;;;5003902;28;20809;-72
2023/08/21 00:55:05;;;;;;;10.80;6.15;;;;;;;;;;5011379;28;20022;-72
2023/08/21 00:57:31;;;;;;;10.57;4.50;;;;;;;;;;5012230;28;20018;-72
2023/08/21 00:59:56;;;;;;;14.52;5.50;;;;;;;;;;5009419;28;20441;-72
2023/08/21 01:02:21;;;;;;;9.67;4.57;;;;;;;;;;5009348;28;20029;-72
2023/08/21 01:04:46;;;;;;;11.33;5.37;;;;;;;;;;5012151;28;20791;-72
2023/08/21 01:07:13;;;;;;;8.43;5.50;;;;;;;;;;5011556;28;20017;-72
2023/08/21 01:09:58;;;;;;;9.15;4.97;;;;;;;;;;5011350;28;20279;-72
2023/08/21 01:12:29;;;;;;;8.52;5.18;;;;;;;;;;5010821;28;20034;-72
2023/08/21 01:15:03;;;;;;;9.00;5.63;;;;;;;;;;5009344;28;20037;-72
2023/08/21 01:17:33;;;;;;;12.35;5.15;;;;;;;;;;5011551;28;20041;-72
2023/08/21 01:19:58;;;;;;;8.70;5.13;;;;;;;;;;5000634;28;20022;-72
2023/08/21 01:22:27;;;;;;;9.13;5.32;;;;;;;;;;5005960;28;20018;-72
2023/08/21 01:24:53;;;;;;;9.32;5.28;;;;;;;;;;5012411;28;20022;-72
2023/08/21 01:27:21;;;;;;;18.13;5.20;;;;;;;;;;5010992;28;20076;-72
2023/08/21 01:29:46;;;;;;;9.60;4.82;;;;;;;;;;5009135;28;20021;-72
2023/08/21 01:32:33;;;;;;;9.35;5.68;;;;;;;;;;5011568;28;20040;-72
2023/08/21 01:34:58;;;;;;;7.40;5.03;;;;;;;;;;5007515;28;20121;-72
2023/08/21 01:37:24;;;;;;;11.90;6.47;;;;;;;;;;5008786;28;20122;-72
2023/08/21 01:39:49;;;;;;;9.20;4.93;;;;;;;;;;5010742;28;20018;-72
2023/08/21 01:42:14;;;;;;;9.63;4.80;;;;;;;;;;5010122;28;20021;-72
2023/08/21 01:44:39;;;;;;;9.63;5.10;;;;;;;;;;5009497;28;20745;-72
2023/08/21 01:47:05;;;;;;;10.87;5.30;;;;;;;;;;5003994;28;20060;-72
2023/08/21 01:49:30;;;;;;;8.82;4.65;;;;;;;;;;5008879;28;20487;-72
2023/08/21 01:51:55;;;;;;;8.32;5.47;;;;;;;;;;5010873;28;20026;-72
2023/08/21 01:54:20;;;;;;;11.33;5.47;;;;;;;;;;5011041;28;20301;-72
2023/08/21 01:56:45;;;;;;;10.10;5.37;;;;;;;;;;5008891;28;20537;-72
2023/08/21 01:59:10;;;;;;;11.90;5.83;;;;;;;;;;5000735;28;20095;-72
2023/08/21 02:01:36;;;;;;;10.10;5.83;;;;;;;;;;5011497;28;20026;-72
2023/08/21 02:04:01;;;;;;;7.57;5.23;;;;;;;;;;5008873;28;20114;-72
2023/08/21 02:06:26;;;;;;;7.23;5.10;;;;;;;;;;5010447;28;20745;-72
2023/08/21 02:08:52;;;;;;;8.80;5.33;;;;;;;;;;5004750;28;20019;-72
2023/08/21 02:11:17;;;;;;;9.98;5.22;;;;;;;;;;5011558;28;20311;-72
2023/08/21 02:13:42;;;;;;;16.02;5.60;;;;;;;;;;5006935;28;20026;-72
2023/08/21 02:16:07;;;;;;;15.87;5.77;;;;;;;;;;5009826;28;20041;-72
2023/08/21 02:18:32;;;;;;;8.30;5.43;;;;;;;;;;5007238;28;20025;-72
2023/08/21 02:20:57;;;;;;;14.67;6.33;;;;;;;;;;5010737;28;20105;-72
2023/08/21 02:23:24;;;;;;;12.00;5.00;;;;;;;;;;5008256;28;20299;-72
2023/08/21 02:25:49;;;;;;;14.18;5.35;;;;;;;;;;5010708;28;20022;-72
2023/08/21 02:28:14;;;;;;;10.93;5.60;;;;;;;;;;5008565;28;20036;-72
2023/08/21 02:30:40;;;;;;;7.50;5.17;;;;;;;;;;5009692;28;20033;-72
2023/08/21 02:33:05;;;;;;;17.27;5.80;;;;;;;;;;5011171;28;20028;-72
2023/08/21 02:35:30;;;;;;;17.20;5.38;;;;;;;;;;5008669;28;20021;-72
2023/08/21 02:37:55;;;;;;;12.35;5.45;;;;;;;;;;5007852;28;20105;-72
2023/08/21 02:40:20;;;;;;;10.37;5.27;;;;;;;;;;5011097;28;20052;-72
2023/08/21 02:42:46;;;;;;;10.10;5.07;;;;;;;;;;5010602;28;20038;-72
2023/08/21 02:45:11;;;;;;;10.77;5.00;;;;;;;;;;5009465;28;20427;-72
2023/08/21 02:47:39;;;;;;;11.77;5.17;;;;;;;;;;5007019;28;20615;-72
2023/08/21 02:50:05;;;;;;;9.18;5.93;;;;;;;;;;5008709;28;20273;-72
2023/08/21 02:52:31;;;;;;;11.93;5.32;;;;;;;;;;5010139;28;20021;-72
2023/08/21 02:54:56;;;;;;;9.18;4.68;;;;;;;;;;5008757;28;20014;-72
2023/08/21 02:57:21;;;;;;;15.20;5.55;;;;;;;;;;5004980;28;20013;-72
2023/08/21 02:59:47;;;;;;;14.10;6.15;;;;;;;;;;5002678;28;20021;-72
2023/08/21 03:02:12;;;;;;;10.97;5.80;;;;;;;;;;5010425;28;20037;-72
2023/08/21 03:04:37;;;;;;;13.70;5.67;;;;;;;;;;5005189;28;20131;-72
2023/08/21 03:07:02;;;;;;;11.40;5.13;;;;;;;;;;5001903;28;20030;-72
2023/08/21 03:09:27;;;;;;;11.98;6.47;;;;;;;;;;5005790;28;20265;-72
2023/08/21 03:11:53;;;;;;;6.57;5.20;;;;;;;;;;5009612;28;20036;-72
2023/08/21 03:14:18;;;;;;;11.10;4.97;;;;;;;;;;5009161;28;20029;-72
2023/08/21 03:16:43;;;;;;;11.77;5.18;;;;;;;;;;5005229;28;20738;-72
2023/08/21 03:19:08;;;;;;;9.43;5.73;;;;;;;;;;5009307;28;20033;-72
2023/08/21 03:21:33;;;;;;;8.93;4.93;;;;;;;;;;5005923;28;20328;-72
2023/08/21 03:23:59;;;;;;;15.37;5.37;;;;;;;;;;4998013;28;20042;-72
2023/08/21 03:26:25;;;;;;;8.25;4.93;;;;;;;;;;5009177;28;20336;-72
2023/08/21 03:28:50;;;;;;;11.90;5.00;;;;;;;;;;5007499;28;20022;-72
2023/08/21 03:31:15;;;;;;;10.60;5.60;;;;;;;;;;5009476;28;20435;-72
2023/08/21 03:33:40;;;;;;;13.50;5.70;;;;;;;;;;5005685;28;20018;-72
2023/08/21 03:36:06;;;;;;;12.88;4.72;;;;;;;;;;5009085;28;20030;-72
2023/08/21 03:38:31;;;;;;;13.35;5.20;;;;;;;;;;5009011;28;20022;-72
2023/08/21 03:40:56;;;;;;;11.30;5.63;;;;;;;;;;5010106;28;20025;-72
2023/08/21 03:43:21;;;;;;;8.80;4.55;;;;;;;;;;5002130;28;20611;-72
2023/08/21 03:45:47;;;;;;;8.80;5.28;;;;;;;;;;5009498;28;20042;-72
2023/08/21 03:48:13;;;;;;;9.38;5.45;;;;;;;;;;5008461;28;20034;-72
2023/08/21 03:50:38;;;;;;;11.52;5.28;;;;;;;;;;5010327;28;20022;-72
2023/08/21 03:53:03;;;;;;;10.18;5.40;;;;;;;;;;5008156;28;20021;-72
2023/08/21 03:55:28;;;;;;;6.83;5.20;;;;;;;;;;5005530;28;20030;-72
2023/08/21 03:57:53;;;;;;;11.10;5.07;;;;;;;;;;5007689;28;20037;-72
2023/08/21 04:00:19;;;;;;;10.43;4.90;;;;;;;;;;5009458;28;20414;-72
2023/08/21 04:02:44;;;;;;;14.00;5.20;;;;;;;;;;5009349;28;20116;-72
2023/08/21 04:05:10;;;;;;;8.90;4.73;;;;;;;;;;5004639;28;20122;-72
2023/08/21 04:07:36;;;;;;;12.88;5.72;;;;;;;;;;5007847;28;20287;-72
2023/08/21 04:10:01;;;;;;;11.30;5.27;;;;;;;;;;5009276;28;20108;-72
2023/08/21 04:12:26;;;;;;;12.13;5.15;;;;;;;;;;5008833;28;20022;-72
2023/08/21 04:14:51;;;;;;;8.43;4.83;;;;;;;;;;5007795;28;20029;-72
2023/08/21 04:17:20;;;;;;;10.10;5.17;;;;;;;;;;5009181;28;20033;-72
2023/08/21 04:19:45;;;;;;;8.48;4.88;;;;;;;;;;5007369;28;20130;-72
2023/08/21 04:22:10;;;;;;;9.90;4.60;;;;;;;;;;5009640;28;20057;-72
2023/08/21 04:24:35;;;;;;;8.30;4.93;;;;;;;;;;5006285;28;20081;-72
2023/08/21 04:27:00;;;;;;;18.60;6.00;;;;;;;;;;5003874;28;20578;-72
2023/08/21 04:29:26;;;;;;;11.37;4.27;;;;;;;;;;5006810;28;20018;-72
2023/08/21 04:31:51;;;;;;;10.13;4.67;;;;;;;;;;5008357;28;20101;-72
2023/08/21 04:34:17;;;;;;;7.57;5.10;;;;;;;;;;5007485;28;20026;-72
2023/08/21 04:36:43;;;;;;;11.70;5.85;;;;;;;;;;5010033;28;20057;-72
2023/08/21 04:39:08;;;;;;;7.20;4.23;;;;;;;;;;5005142;28;20064;-72
2023/08/21 04:41:33;;;;;;;9.13;5.10;;;;;;;;;;5010117;28;20024;-72
2023/08/21 04:44:00;;;;;;;10.40;4.70;;;;;;;;;;5010001;28;20044;-72
2023/08/21 04:46:25;;;;;;;9.77;5.22;;;;;;;;;;5005695;28;20268;-72
2023/08/21 04:48:50;;;;;;;9.23;4.27;;;;;;;;;;5008932;28;20083;-72
2023/08/21 04:51:15;;;;;;;9.65;4.28;;;;;;;;;;5010719;28;20018;-72
2023/08/21 04:53:40;;;;;;;8.23;4.70;;;;;;;;;;5007026;28;20049;-72
2023/08/21 04:56:06;;;;;;;9.60;4.32;;;;;;;;;;5003464;28;20401;-72
2023/08/21 04:58:31;;;;;;;8.33;4.70;;;;;;;;;;4989457;28;20076;-72
2023/08/21 05:00:56;;;;;;;7.78;4.53;;;;;;;;;;5000209;28;20372;-72
2023/08/21 05:03:21;;;;;;;15.57;5.60;;;;;;;;;;4997610;28;20371;-72
2023/08/21 05:05:55;;;;;;;12.27;5.00;;;;;;;;;;5005313;28;20018;-72
2023/08/21 05:08:21;;;;;;;17.50;5.18;;;;;;;;;;5007197;28;20273;-72
2023/08/21 05:10:47;;;;;;;11.20;5.38;;;;;;;;;;5010539;28;20386;-72
2023/08/21 05:13:12;;;;;;;17.97;5.43;;;;;;;;;;5008482;28;20040;-72
2023/08/21 05:15:37;;;;;;;13.80;5.43;;;;;;;;;;5002214;28;20312;-72
2023/08/21 05:18:02;;;;;;;14.13;5.18;;;;;;;;;;4983760;28;20677;-72
2023/08/21 05:20:27;;;;;;;14.43;5.43;;;;;;;;;;4994318;28;20034;-72
2023/08/21 05:22:53;;;;;;;8.10;4.97;;;;;;;;;;5007392;28;20057;-72
2023/08/21 05:25:18;;;;;;;9.27;5.40;;;;;;;;;;5009890;28;20073;-72
2023/08/21 05:27:43;;;;;;;14.10;5.47;;;;;;;;;;5000808;28;20046;-72
2023/08/21 05:30:10;;;;;;;14.40;5.03;;;;;;;;;;5000542;28;20029;-72
2023/08/21 05:32:35;;;;;;;12.02;5.03;;;;;;;;;;5006595;28;20024;-72
2023/08/21 05:35:00;;;;;;;16.70;5.75;;;;;;;;;;5005370;28;20018;-72
2023/08/21 05:37:26;;;;;;;17.70;6.57;;;;;;;;;;5011407;28;20479;-72
2023/08/21 05:39:52;;;;;;;13.32;5.65;;;;;;;;;;5006745;28;20273;-72
2023/08/21 05:42:17;;;;;;;10.48;5.15;;;;;;;;;;5011282;28;20076;-72
2023/08/21 05:44:42;;;;;;;10.05;5.53;;;;;;;;;;5003436;28;20022;-72
2023/08/21 05:47:07;;;;;;;11.77;5.07;;;;;;;;;;5007875;28;20040;-72
2023/08/21 05:49:32;;;;;;;13.40;5.70;;;;;;;;;;5002769;28;20018;-72
2023/08/21 05:51:58;;;;;;;13.80;5.47;;;;;;;;;;5006246;28;20236;-72
2023/08/21 05:54:24;;;;;;;14.15;5.78;;;;;;;;;;5003066;28;20295;-72
2023/08/21 05:56:49;;;;;;;9.20;5.25;;;;;;;;;;5004674;28;20033;-72
2023/08/21 05:59:26;;;;;;;15.77;6.30;;;;;;;;;;5006875;28;20026;-72
2023/08/21 06:01:51;;;;;;;15.30;5.72;;;;;;;;;;5004161;28;20368;-72
2023/08/21 06:04:16;;;;;;;12.83;5.23;;;;;;;;;;5007706;28;20021;-72
2023/08/21 06:06:42;;;;;;;14.83;5.23;;;;;;;;;;5002504;28;20018;-72
2023/08/21 06:09:07;;;;;;;9.00;4.80;;;;;;;;;;5009800;28;20062;-72
2023/08/21 06:11:32;;;;;;;14.00;5.45;;;;;;;;;;5009841;28;20087;-72
2023/08/21 06:13:57;;;;;;;10.70;6.37;;;;;;;;;;5010393;28;20051;-72
2023/08/21 06:16:23;;;;;;;10.67;5.40;;;;;;;;;;5005067;28;20199;-72
2023/08/21 06:18:48;;;;;;;14.70;5.95;;;;;;;;;;5006428;28;20060;-72
2023/08/21 06:21:13;;;;;;;12.70;5.67;;;;;;;;;;5005196;28;20026;-72
2023/08/21 06:23:38;;;;;;;14.33;5.70;;;;;;;;;;5002178;28;20481;-72
2023/08/21 06:26:04;;;;;;;16.57;5.93;;;;;;;;;;5005733;28;20024;-72
2023/08/21 06:28:29;;;;;;;14.27;5.88;;;;;;;;;;5004436;28;20828;-72
2023/08/21 06:30:56;;;;;;;13.03;5.73;;;;;;;;;;5001417;28;20112;-72
2023/08/21 06:33:21;;;;;;;13.73;6.10;;;;;;;;;;5002076;28;20026;-72
2023/08/21 06:35:47;;;;;;;13.43;5.37;;;;;;;;;;4991558;28;20390;-72
2023/08/21 06:38:12;;;;;;;9.90;5.13;;;;;;;;;;5000103;28;20252;-72
2023/08/21 06:40:37;;;;;;;13.40;4.87;;;;;;;;;;5006264;28;20451;-72
2023/08/21 06:43:05;;;;;;;11.07;6.43;;;;;;;;;;5005872;28;20291;-72
2023/08/21 06:45:32;;;;;;;10.63;5.63;;;;;;;;;;4991730;28;20390;-72
2023/08/21 06:47:57;;;;;;;15.35;6.28;;;;;;;;;;5000165;28;20022;-72
2023/08/21 06:50:22;;;;;;;8.53;5.80;;;;;;;;;;5006937;28;20022;-72
2023/08/21 06:52:48;;;;;;;14.57;6.10;;;;;;;;;;5006448;28;20273;-72
2023/08/21 06:55:13;;;;;;;10.25;6.03;;;;;;;;;;5005296;28;20047;-72
2023/08/21 06:57:38;;;;;;;13.32;6.45;;;;;;;;;;5008045;28;20022;-72
2023/08/21 07:00:05;;;;;;;14.27;6.57;;;;;;;;;;5004413;28;20045;-72
2023/08/21 07:02:30;;;;;;;12.75;6.72;;;;;;;;;;5007235;28;20794;-72
2023/08/21 07:04:55;;;;;;;10.47;6.27;;;;;;;;;;5002701;28;20022;-72
2023/08/21 07:07:21;;;;;;;11.13;6.77;;;;;;;;;;5001657;28;20283;-72
2023/08/21 07:09:46;;;;;;;11.52;6.10;;;;;;;;;;5004280;28;20141;-72
2023/08/21 07:12:11;;;;;;;9.57;6.03;;;;;;;;;;5003378;28;20061;-72
2023/08/21 07:14:36;;;;;;;10.23;5.67;;;;;;;;;;4999522;28;20034;-72
2023/08/21 07:17:01;;;;;;;10.47;5.97;;;;;;;;;;5007298;28;20025;-73
2023/08/21 07:19:27;;;;;;;9.53;5.50;;;;;;;;;;5008126;28;20040;-73
2023/08/21 07:21:52;;;;;;;10.10;5.37;;;;;;;;;;5005463;28;20028;-73
2023/08/21 07:24:17;;;;;;;13.10;5.63;;;;;;;;;;5004152;28;20273;-73
2023/08/21 07:26:42;;;;;;;9.30;6.17;;;;;;;;;;5006793;28;20029;-73
2023/08/21 07:29:08;;;;;;;12.35;6.05;;;;;;;;;;5003592;28;20030;-72
2023/08/21 07:31:33;;;;;;;8.53;5.57;;;;;;;;;;4999391;28;20465;-73
2023/08/21 07:33:58;;;;;;;16.37;5.90;;;;;;;;;;5004996;28;20323;-73
2023/08/21 07:36:23;;;;;;;10.63;5.43;;;;;;;;;;5002101;28;20080;-73
2023/08/21 07:38:49;;;;;;;7.40;5.13;;;;;;;;;;5002232;28;20453;-73
2023/08/21 07:41:14;;;;;;;8.90;4.80;;;;;;;;;;5000356;28;20264;-73
2023/08/21 07:43:40;;;;;;;9.87;5.13;;;;;;;;;;5000010;28;20022;-73
2023/08/21 07:46:07;;;;;;;10.07;5.00;;;;;;;;;;4999317;28;20105;-73
2023/08/21 07:48:32;;;;;;;8.38;5.47;;;;;;;;;;5004443;28;20024;-73
2023/08/21 07:50:57;;;;;;;9.30;5.28;;;;;;;;;;5005020;28;20164;-73
2023/08/21 07:53:23;;;;;;;9.68;6.22;;;;;;;;;;4995237;28;20458;-73
2023/08/21 07:55:48;;;;;;;12.20;5.97;;;;;;;;;;4998113;28;20025;-73
2023/08/21 07:58:14;;;;;;;10.77;6.17;;;;;;;;;;5001822;28;20022;-73
2023/08/21 08:00:39;;;;;;;9.40;5.85;;;;;;;;;;5004004;28;20049;-73
2023/08/21 08:03:08;;;;;;;12.53;6.33;;;;;;;;;;4998734;28;20088;-73
2023/08/21 08:05:33;;;;;;;17.00;9.07;;;;;;;;;;5006817;28;20136;-73
2023/08/21 08:07:58;;;;;;;15.18;8.55;;;;;;;;;;5006886;28;20109;-73
2023/08/21 08:10:24;;;;;;;14.50;8.53;;;;;;;;;;5005243;28;20021;-73
2023/08/21 08:12:50;;;;;;;12.60;8.07;;;;;;;;;;5007882;28;20026;-73
2023/08/21 08:15:15;;;;;;;18.80;6.87;;;;;;;;;;5009197;28;20021;-73
2023/08/21 08:17:40;;;;;;;11.03;6.33;;;;;;;;;;5007948;28;20513;-73
2023/08/21 08:20:06;;;;;;;18.60;6.90;;;;;;;;;;5008243;28;20036;-73
2023/08/21 08:22:31;;;;;;;10.88;6.63;;;;;;;;;;5008936;28;20373;-73
2023/08/21 08:24:56;;;;;;;14.57;7.23;;;;;;;;;;5007413;28;20032;-73
2023/08/21 08:27:21;;;;;;;12.63;6.87;;;;;;;;;;5006904;28;20021;-73
2023/08/21 08:29:46;;;;;;;16.47;7.20;;;;;;;;;;5005541;28;20028;-73
2023/08/21 08:32:12;;;;;;;17.67;9.33;;;;;;;;;;5006802;28;20021;-73
2023/08/21 08:34:37;;;;;;;19.50;9.00;;;;;;;;;;5005586;28;20025;-73
2023/08/21 08:37:02;;;;;;;15.10;8.00;;;;;;;;;;5007330;28;20041;-73
2023/08/21 08:39:27;;;;;;;14.13;7.33;;;;;;;;;;5008624;28;20089;-73
2023/08/21 08:42:02;;;;;;;16.50;6.33;;;;;;;;;;5004381;28;20305;-73
2023/08/21 08:44:29;;;;;;;14.45;6.72;;;;;;;;;;4997457;28;20022;-73
2023/08/21 08:46:54;;;;;;;13.38;7.70;;;;;;;;;;5002851;28;20022;-73
2023/08/21 08:49:20;;;;;;;13.68;6.85;;;;;;;;;;5008944;28;20036;-73
2023/08/21 08:51:46;;;;;;;18.05;7.57;;;;;;;;;;5004264;28;20071;-73
2023/08/21 08:54:12;;;;;;;19.27;8.52;;;;;;;;;;5002760;28;20030;-73
2023/08/21 08:56:37;;;;;;;18.10;7.63;;;;;;;;;;4999487;28;20021;-73
2023/08/21 08:59:03;;;;;;;19.67;9.00;;;;;;;;;;5005814;28;20026;-73
2023/08/21 09:01:28;;;;;;;19.38;7.18;;;;;;;;;;5005969;28;20737;-73
2023/08/21 09:03:53;;;;;;;16.63;8.73;;;;;;;;;;5004326;28;20113;-72
2023/08/21 09:06:19;;;;;;;17.73;7.83;;;;;;;;;;5007251;28;20032;-73
2023/08/21 09:08:53;;;;;;;10.93;6.80;;;;;;;;;;5009218;28;20272;-72
2023/08/21 09:11:18;;;;;;;14.10;6.85;;;;;;;;;;5001236;28;20531;-73
2023/08/21 09:13:43;;;;;;;15.93;6.77;;;;;;;;;;5005428;28;20026;-72
2023/08/21 09:16:09;;;;;;;15.90;8.00;;;;;;;;;;5002059;28;20033;-73
2023/08/21 09:18:34;;;;;;;21.50;8.80;;;;;;;;;;5004677;28;20531;-73
2023/08/21 09:21:01;;;;;;;18.17;9.75;;;;;;;;;;5006283;28;20532;-73
2023/08/21 09:23:28;;;;;;;21.63;9.50;;;;;;;;;;5005624;28;20626;-73
2023/08/21 09:25:53;;;;;;;24.05;10.90;;;;;;;;;;5009061;28;20161;-73
2023/08/21 09:28:22;;;;;;;16.47;9.70;;;;;;;;;;5001157;28;20102;-73
2023/08/21 09:30:51;;;;;;;13.27;7.60;;;;;;;;;;5000269;28;20085;-73
2023/08/21 09:33:17;;;;;;;21.15;9.40;;;;;;;;;;4999296;28;20490;-73
2023/08/21 09:35:43;;;;;;;21.55;9.52;;;;;;;;;;5000283;28;20030;-72
2023/08/21 09:38:09;;;;;;;21.05;8.43;;;;;;;;;;5010075;28;20033;-72
2023/08/21 09:40:38;;;;;;;16.65;7.60;;;;;;;;;;5004424;28;20018;-73
2023/08/21 09:43:03;;;;;;;19.67;8.82;;;;;;;;;;5005623;28;20021;-73
2023/08/21 09:45:29;;;;;;;17.00;10.17;;;;;;;;;;5009354;28;20022;-73
2023/08/21 09:47:54;;;;;;;19.02;10.13;;;;;;;;;;5002073;28;20030;-72
2023/08/21 09:50:20;;;;;;;19.63;8.43;;;;;;;;;;4999558;28;20149;-73
2023/08/21 09:52:45;;;;;;;17.88;9.40;;;;;;;;;;5007572;28;20326;-73
2023/08/21 09:55:11;;;;;;;23.45;9.75;;;;;;;;;;5008390;28;20386;-72
2023/08/21 09:57:36;;;;;;;20.45;9.05;;;;;;;;;;5006439;28;20482;-72
2023/08/21 10:00:14;;;;;;;20.52;9.88;;;;;;;;;;5005479;28;20033;-72
2023/08/21 10:02:39;;;;;;;23.27;11.43;;;;;;;;;;5002055;28;20029;-73
2023/08/21 10:05:05;;;;;;;19.90;10.43;;;;;;;;;;4998619;28;20058;-73
2023/08/21 10:07:30;;;;;;;19.40;10.95;;;;;;;;;;4994144;28;20322;-72
2023/08/21 10:09:56;;;;;;;20.20;11.93;;;;;;;;;;5006651;28;20014;-72
2023/08/21 10:12:21;;;;;;;19.70;11.45;;;;;;;;;;5008108;28;20276;-72
2023/08/21 10:14:47;;;;;;;19.08;11.02;;;;;;;;;;5005018;28;20026;-72
2023/08/21 10:17:12;;;;;;;14.70;11.25;;;;;;;;;;5008927;28;20026;-73
2023/08/21 10:19:37;;;;;;;20.45;11.55;;;;;;;;;;5005309;28;20030;-72
2023/08/21 10:22:03;;;;;;;18.00;11.23;;;;;;;;;;5009006;28;20474;-73
2023/08/21 10:24:32;;;;;;;22.27;9.57;;;;;;;;;;5004798;28;20370;-73
2023/08/21 10:26:59;;;;;;;23.73;10.20;;;;;;;;;;5001345;28;20052;-73
2023/08/21 10:29:25;;;;;;;17.20;9.45;;;;;;;;;;5000638;28;20156;-73
2023/08/21 10:31:58;;;;;;;13.10;7.45;;;;;;;;;;5004838;28;20022;-73
2023/08/21 10:34:30;;;;;;;18.30;8.45;;;;;;;;;;4990435;28;20042;-72
2023/08/21 10:37:02;;;;;;;18.05;9.02;;;;;;;;;;5006379;28;20013;-72
2023/08/21 10:39:31;;;;;;;16.88;8.30;;;;;;;;;;5008441;28;20057;-72
2023/08/21 10:41:57;;;;;;;18.27;9.32;;;;;;;;;;5003856;28;20108;-72
2023/08/21 10:44:40;;;;;;;17.77;8.45;;;;;;;;;;5007492;28;20108;-72
2023/08/21 10:47:22;;;;;;;18.35;8.80;;;;;;;;;;5003242;28;20026;-73
2023/08/21 10:49:53;;;;;;;19.23;8.80;;;;;;;;;;5000478;28;20033;-72
2023/08/21 10:52:23;;;;;;;13.02;7.78;;;;;;;;;;5004172;28;20334;-72
2023/08/21 10:54:49;;;;;;;14.13;8.60;;;;;;;;;;5005075;28;20018;-73
2023/08/21 10:57:14;;;;;;;18.20;8.02;;;;;;;;;;4999743;28;20431;-72
2023/08/21 10:59:53;;;;;;;19.05;8.38;;;;;;;;;;5006244;28;20018;-72
2023/08/21 11:02:18;;;;;;;22.40;8.15;;;;;;;;;;4992543;28;20025;-72
2023/08/21 11:04:44;;;;;;;16.73;7.65;;;;;;;;;;5005271;28;20104;-72
2023/08/21 11:07:09;;;;;;;20.73;10.23;;;;;;;;;;5004293;28;20026;-72
2023/08/21 11:09:37;;;;;;;23.23;9.27;;;;;;;;;;5003608;28;20030;-72
2023/08/21 11:12:07;;;;;;;14.98;8.68;;;;;;;;;;5003920;28;20097;-72
2023/08/21 11:14:32;;;;;;;20.15;9.05;;;;;;;;;;5005963;28;20057;-72
2023/08/21 11:16:59;;;;;;;20.80;7.37;;;;;;;;;;5004395;28;20069;-72
2023/08/21 11:19:24;;;;;;;14.05;7.88;;;;;;;;;;5004240;28;20057;-72
2023/08/21 11:21:52;;;;;;;16.38;9.18;;;;;;;;;;4998702;28;20488;-72
2023/08/21 11:24:17;;;;;;;13.68;7.70;;;;;;;;;;5004727;28;20478;-72
2023/08/21 11:26:42;;;;;;;20.40;7.17;;;;;;;;;;5004359;28;20090;-72
2023/08/21 11:29:07;;;;;;;13.15;7.07;;;;;;;;;;4996285;28;20073;-72
2023/08/21 11:31:33;;;;;;;14.63;6.87;;;;;;;;;;5005609;28;20030;-72
2023/08/21 11:33:58;;;;;;;13.63;6.70;;;;;;;;;;5007375;28;20026;-72
2023/08/21 11:36:23;;;;;;;14.02;7.55;;;;;;;;;;5005319;28;20295;-72
2023/08/21 11:39:03;;;;;;;10.88;5.97;;;;;;;;;;5000765;28;20026;-72
2023/08/21 11:41:28;;;;;;;9.20;5.75;;;;;;;;;;5003534;28;20021;-72
2023/08/21 11:44:01;;;;;;;17.53;5.73;;;;;;;;;;5005767;28;20037;-72
2023/08/21 11:46:26;;;;;;;13.88;5.95;;;;;;;;;;5006834;28;20273;-72
2023/08/21 11:48:52;;;;;;;14.40;6.03;;;;;;;;;;5006903;28;20542;-72
2023/08/21 11:51:17;;;;;;;13.85;7.40;;;;;;;;;;5009646;28;20026;-72
2023/08/21 11:53:42;;;;;;;15.77;7.57;;;;;;;;;;5003810;28;20026;-72
2023/08/21 11:56:11;;;;;;;14.85;6.90;;;;;;;;;;5007951;28;20108;-72
2023/08/21 11:58:39;;;;;;;17.58;6.55;;;;;;;;;;5004564;28;20028;-72
2023/08/21 12:01:05;;;;;;;13.10;7.03;;;;;;;;;;5004896;28;20045;-72
2023/08/21 12:03:31;;;;;;;10.70;5.97;;;;;;;;;;5006291;28;20022;-72
2023/08/21 12:05:56;;;;;;;19.27;7.07;;;;;;;;;;5000992;28;20104;-72
2023/08/21 12:08:21;;;;;;;14.25;6.70;;;;;;;;;;5003187;28;20121;-72
2023/08/21 12:10:49;;;;;;;12.70;5.30;;;;;;;;;;5009716;28;20072;-72
2023/08/21 12:13:15;;;;;;;12.82;6.53;;;;;;;;;;5004213;28;20036;-72
2023/08/21 12:15:40;;;;;;;17.03;6.43;;;;;;;;;;5010101;28;20263;-72
2023/08/21 12:18:05;;;;;;;11.80;5.87;;;;;;;;;;5010986;28;20033;-72
2023/08/21 12:20:30;;;;;;;13.02;6.43;;;;;;;;;;5012334;28;20206;-72
2023/08/21 12:22:55;;;;;;;11.77;6.07;;;;;;;;;;5007408;28;20026;-72
2023/08/21 12:25:21;;;;;;;19.57;6.33;;;;;;;;;;5004806;28;20032;-72
2023/08/21 12:27:46;;;;;;;11.07;5.95;;;;;;;;;;5007370;28;20398;-72
2023/08/21 12:30:11;;;;;;;16.08;6.65;;;;;;;;;;5008116;28;20048;-72
2023/08/21 12:32:36;;;;;;;15.40;7.10;;;;;;;;;;5010571;28;20075;-72
2023/08/21 12:35:04;;;;;;;9.90;6.07;;;;;;;;;;5008691;28;20028;-72
2023/08/21 12:37:29;;;;;;;18.50;7.40;;;;;;;;;;5008328;28;20033;-72
2023/08/21 12:39:55;;;;;;;13.20;6.53;;;;;;;;;;5006785;28;20014;-72
2023/08/21 12:42:20;;;;;;;12.65;5.65;;;;;;;;;;4991991;28;20622;-72
2023/08/21 12:44:45;;;;;;;15.60;6.27;;;;;;;;;;5004624;28;20025;-72
2023/08/21 12:47:10;;;;;;;10.10;5.20;;;;;;;;;;5009004;28;20557;-72
2023/08/21 12:49:35;;;;;;;12.83;5.13;;;;;;;;;;5006684;28;20026;-72
2023/08/21 12:52:00;;;;;;;16.00;5.50;;;;;;;;;;5003290;28;20483;-72
2023/08/21 12:54:26;;;;;;;12.87;5.30;;;;;;;;;;5008932;28;20037;-73
2023/08/21 12:56:51;;;;;;;11.07;5.30;;;;;;;;;;5008586;28;20109;-73
2023/08/21 12:59:16;;;;;;;8.50;4.88;;;;;;;;;;5008893;28;20084;-73
2023/08/21 13:01:42;;;;;;;13.70;5.20;;;;;;;;;;5002450;28;20026;-73
2023/08/21 13:04:07;;;;;;;11.73;4.75;;;;;;;;;;5010496;28;20022;-73
2023/08/21 13:06:32;;;;;;;10.10;4.50;;;;;;;;;;5011004;28;20018;-73
2023/08/21 13:08:57;;;;;;;5.87;3.43;;;;;;;;;;5009492;28;20034;-73
2023/08/21 13:11:22;;;;;;;9.37;4.10;;;;;;;;;;4999863;28;20021;-73
2023/08/21 13:13:48;;;;;;;9.20;4.27;;;;;;;;;;5003871;28;20109;-73
2023/08/21 13:16:13;;;;;;;12.30;5.05;;;;;;;;;;5000429;28;20277;-73
2023/08/21 13:18:38;;;;;;;10.00;4.18;;;;;;;;;;5004003;28;20109;-73
2023/08/21 13:21:04;;;;;;;7.40;4.33;;;;;;;;;;5009078;28;20085;-73
2023/08/21 13:23:29;;;;;;;12.67;3.93;;;;;;;;;;5010405;28;20504;-73
2023/08/21 13:25:54;;;;;;;8.90;3.50;;;;;;;;;;5004722;28;20108;-72
2023/08/21 13:28:19;;;;;;;8.00;3.13;;;;;;;;;;5001769;28;20292;-73
2023/08/21 13:30:44;;;;;;;13.60;4.22;;;;;;;;;;5002084;28;20096;-73
2023/08/21 13:33:10;;;;;;;9.03;3.90;;;;;;;;;;5005518;28;20030;-73
2023/08/21 13:35:35;;;;;;;8.25;3.70;;;;;;;;;;5006818;28;20105;-73
2023/08/21 13:38:00;;;;;;;10.17;4.20;;;;;;;;;;5006709;28;20029;-74
2023/08/21 13:40:25;;;;;;;9.43;3.78;;;;;;;;;;5005491;28;20193;-73
2023/08/21 13:42:50;;;;;;;9.63;3.57;;;;;;;;;;5006401;28;20074;-73
2023/08/21 13:45:17;;;;;;;10.83;4.67;;;;;;;;;;5001001;28;20280;-73
2023/08/21 13:47:44;;;;;;;9.85;3.78;;;;;;;;;;5009436;28;20279;-73
2023/08/21 13:50:10;;;;;;;10.27;3.78;;;;;;;;;;5002128;28;20510;-73
2023/08/21 13:52:35;;;;;;;11.68;3.50;;;;;;;;;;5006389;28;20014;-73
2023/08/21 13:55:02;;;;;;;6.80;3.30;;;;;;;;;;5007360;28;20486;-72
2023/08/21 13:57:27;;;;;;;9.02;3.67;;;;;;;;;;5002668;28;20037;-73
2023/08/21 13:59:52;;;;;;;12.20;3.83;;;;;;;;;;4999307;28;20060;-73
2023/08/21 14:02:22;;;;;;;10.95;3.90;;;;;;;;;;5001854;28;20518;-73
2023/08/21 14:04:47;;;;;;;10.80;3.95;;;;;;;;;;5001414;28;20028;-73
2023/08/21 14:07:12;;;;;;;14.27;3.40;;;;;;;;;;5006709;28;20109;-73
2023/08/21 14:09:38;;;;;;;10.73;3.67;;;;;;;;;;5005070;28;20018;-73
2023/08/21 14:12:03;;;;;;;6.53;3.17;;;;;;;;;;5009295;28;20404;-73
2023/08/21 14:14:28;;;;;;;9.35;3.50;;;;;;;;;;5006417;28;20487;-73
2023/08/21 14:16:54;;;;;;;14.75;4.03;;;;;;;;;;5008490;28;20017;-73
2023/08/21 14:19:19;;;;;;;7.63;3.10;;;;;;;;;;5005747;28;20370;-73
2023/08/21 14:21:44;;;;;;;6.80;3.63;;;;;;;;;;5008987;28;20017;-73
2023/08/21 14:24:09;;;;;;;16.70;3.00;;;;;;;;;;5004940;28;20403;-73
2023/08/21 14:26:34;;;;;;;8.83;3.10;;;;;;;;;;5006938;28;20021;-74